WetterOnline ( https://www.wetteronline.de )

Wetter aktuell Oldersbek

Aktuelles Wetter: Schleswig (48m)

6-stündlich | Neueste Meldungen
Ortszeit Temperatur Wetter
Fr, 15.11. 13:00 6.3° C bedeckt
Fr, 15.11. 7:00 5.8° C bedeckt
Fr, 15.11. 1:00 4.6° C bedeckt
Do, 14.11. 19:00 4.8° C bedeckt
Do, 14.11. 13:00 7.1° C bewölkt
Do, 14.11. 7:00 3.1° C Nebel
Do, 14.11. 1:00 4.2° C leicht bewölkt
Mi, 13.11. 19:00 5.7° C bedeckt
Ortszeit Temperatur Wetter
Fr, 15.11. 16:30 7.7° C bedeckt
Fr, 15.11. 16:20 7.7° C bedeckt
Fr, 15.11. 16:10 7.7° C bewölkt
Fr, 15.11. 16:00 7.5° C bedeckt
Fr, 15.11. 15:50 7.5° C bedeckt
Fr, 15.11. 15:40 7.4° C bewölkt
Fr, 15.11. 15:30 7.2° C bedeckt
Fr, 15.11. 15:00 6.6° C bedeckt
Ortszeit Relative Feuchte Sichtweite
Fr, 15.11. 13:00 84% 15 km
Fr, 15.11. 7:00 80% 20 km
Fr, 15.11. 1:00 89% 15 km
Do, 14.11. 19:00 91% 12 km
Do, 14.11. 13:00 75% 23 km
Do, 14.11. 7:00 100% 100 m
Do, 14.11. 1:00 95% 11 km
Mi, 13.11. 19:00 88% 16 km
Ortszeit Relative Feuchte Sichtweite
Fr, 15.11. 16:30 87% 22 km
Fr, 15.11. 16:20 87% -
Fr, 15.11. 16:10 86% -
Fr, 15.11. 16:00 86% 24 km
Fr, 15.11. 15:50 86% -
Fr, 15.11. 15:40 86% -
Fr, 15.11. 15:30 86% 23 km
Fr, 15.11. 15:00 86% 25 km
Ortszeit Niederschlagsmenge Niederschlagsart
Fr, 15.11. 13:00 0.0 l/m2 in 6 Std. -
Fr, 15.11. 7:00 0.0 l/m2 in 12 Std. -
Fr, 15.11. 1:00 0.0 l/m2 in 6 Std. -
Do, 14.11. 19:00 0.0 l/m2 in 12 Std. -
Do, 14.11. 13:00 0.0 l/m2 in 6 Std. -
Do, 14.11. 7:00 0.1 l/m2 in 12 Std. -
Do, 14.11. 1:00 0.1 l/m2 in 6 Std. Regen
Mi, 13.11. 19:00 0.1 l/m2 in 12 Std. Regen
Ortszeit Niederschlagsmenge Niederschlagsart
Fr, 15.11. 16:30 0.0 l/m2 in 1 Std. -
Fr, 15.11. 16:20 keine Meldung -
Fr, 15.11. 16:10 keine Meldung -
Fr, 15.11. 16:00 0.0 l/m2 in 1 Std. -
Fr, 15.11. 15:50 keine Meldung -
Fr, 15.11. 15:40 keine Meldung -
Fr, 15.11. 15:30 0.0 l/m2 in 1 Std. -
Fr, 15.11. 15:00 0.0 l/m2 in 1 Std. -
Ortszeit Stärke Spitze Richtung
km/h Bft. km/h Grad Sektor
Fr, 15.11. 13:00 25 4 54 100° O
Fr, 15.11. 7:00 29 5 50 90° O
Fr, 15.11. 1:00 14 3 25 90° O
Do, 14.11. 19:00 9 2 24 90° O
Do, 14.11. 13:00 7 2 22 140° SO
Do, 14.11. 7:00 14 3 25 190° S
Do, 14.11. 1:00 14 3 29 190° S
Mi, 13.11. 19:00 15 3 43 180° S
Ortszeit Stärke Spitze Richtung
km/h Bft. km/h Grad Sektor
Fr, 15.11. 16:30 18 3 36 100° O
Fr, 15.11. 16:20 18 3 - 100° O
Fr, 15.11. 16:10 18 3 - 100° O
Fr, 15.11. 16:00 24 4 43 100° O
Fr, 15.11. 15:50 24 4 - 100° O
Fr, 15.11. 15:40 22 4 - 100° O
Fr, 15.11. 15:30 22 4 39 100° O
Fr, 15.11. 15:00 22 4 41 100° O
Ortszeit Untergrenze Bedeckung Gattung
total tief tief mittel hoch
Fr, 15.11. 13:00 360 m 8/8 8/8 - - -
Fr, 15.11. 7:00 510 m 8/8 8/8 - - -
Fr, 15.11. 1:00 6900 m 8/8 8/8 - - -
Do, 14.11. 19:00 4800 m 8/8 8/8 - - -
Do, 14.11. 13:00 6600 m 8/8 5/8 - - -
Do, 14.11. 7:00 <30 m 8/8 0/8 - - -
Do, 14.11. 1:00 1200 m 4/8 4/8 - - -
Mi, 13.11. 19:00 420 m 8/8 8/8 - - -
Ortszeit Bedeckungsgrad in Achtel und Wolkenuntergrenze
Fr, 15.11. 16:30 7(390m) 8(570m)
Fr, 15.11. 16:20 7(390m) 8(570m)
Fr, 15.11. 16:10 7(390m) 7(510m)
Fr, 15.11. 16:00 7(390m) 8(510m)
Fr, 15.11. 15:50 7(390m) 8(510m)
Fr, 15.11. 15:40 7(390m)
Fr, 15.11. 15:30 8(360m)
Fr, 15.11. 15:00 8(330m)
Ortszeit Luftdruck NN (hPa) Tendenz (hPa in 3 Std.)
Fr, 15.11. 13:00 1008 - 0,7
Fr, 15.11. 7:00 1009 - 1,9
Fr, 15.11. 1:00 1011 + 0,1
Do, 14.11. 19:00 1011 + 1,9
Do, 14.11. 13:00 1008 + 1,5
Do, 14.11. 7:00 1004 + 1,8
Do, 14.11. 1:00 1001 + 1,2
Mi, 13.11. 19:00 999 + 1,0
Ortszeit Luftdruck NN (hPa) Tendenz (hPa in 3 Std.)
Fr, 15.11. 16:30 1007 - 1,0
Fr, 15.11. 16:20 1007 keine Meldung
Fr, 15.11. 16:10 1007 keine Meldung
Fr, 15.11. 16:00 1007 - 1,1
Fr, 15.11. 15:50 1007 keine Meldung
Fr, 15.11. 15:40 1007 keine Meldung
Fr, 15.11. 15:30 1007 - 0,5
Fr, 15.11. 15:00 1007 - 0,7
Ortszeit Schneehöhe (cm)
Fr, 15.11. 13:00 0
Fr, 15.11. 7:00 0
Fr, 15.11. 1:00 0
Do, 14.11. 19:00 0
Do, 14.11. 13:00 0
Do, 14.11. 7:00 0
Do, 14.11. 1:00 0
Mi, 13.11. 19:00 0
Ortszeit Schneehöhe (cm)
Fr, 15.11. 16:30 0
Fr, 15.11. 16:20 0
Fr, 15.11. 16:10 0
Fr, 15.11. 16:00 0
Fr, 15.11. 15:50 0
Fr, 15.11. 15:40 0
Fr, 15.11. 15:30 0
Fr, 15.11. 15:00 0
Link zu dieser Seite / Seite empfehlen

Das Wetter in ...